Terminal Aerodrome Forecast
Issued by NWS Missoula, MT

Home | Current Version | Previous Version | Text Only | Print | Product List | Glossary On
Versions: 1 2 3 4 5 6 7 8 9 10 11 12 13 14 15 16
060
FTUS45 KMSO 202325
TAFGPI
TAF
KGPI 202325Z 2100/2124 15009KT 6SM -RA SCT014 BKN035 OVC045
     FM210400 VRB04KT 4SM -SHSNRA BR OVC025
     FM211000 00000KT 1SM BR OVC003
     FM211800 13005KT 5SM BR VCSH OVC005=

USA.gov is the U.S. government's official web portal to all federal, state and local government web resources and services.